sensor_id;sensor_type;location;lat;lon;timestamp;pressure;altitude;pressure_sealevel;temperature;humidity
72525;BME280;60547;48.502;8.996;2023-04-07T00:00:54;97931.63;;;6.76;79.86
72525;BME280;60547;48.502;8.996;2023-04-07T00:03:20;97916.25;;;6.71;79.78
72525;BME280;60547;48.502;8.996;2023-04-07T00:05:46;97915.47;;;6.71;79.66
72525;BME280;60547;48.502;8.996;2023-04-07T00:08:12;97918.22;;;6.74;79.49
72525;BME280;60547;48.502;8.996;2023-04-07T00:10:37;97924.13;;;6.76;79.38
72525;BME280;60547;48.502;8.996;2023-04-07T00:13:03;97922.50;;;6.79;78.75
72525;BME280;60547;48.502;8.996;2023-04-07T00:15:28;97917.91;;;6.65;79.37
72525;BME280;60547;48.502;8.996;2023-04-07T00:17:54;97918.28;;;6.67;79.50
72525;BME280;60547;48.502;8.996;2023-04-07T00:20:20;97912.41;;;6.62;79.56
72525;BME280;60547;48.502;8.996;2023-04-07T00:22:46;97904.56;;;6.57;80.26
72525;BME280;60547;48.502;8.996;2023-04-07T00:25:11;97907.25;;;6.64;79.92
72525;BME280;60547;48.502;8.996;2023-04-07T00:27:37;97895.78;;;6.65;78.97
72525;BME280;60547;48.502;8.996;2023-04-07T00:30:02;97897.81;;;6.61;79.93
72525;BME280;60547;48.502;8.996;2023-04-07T00:32:28;97890.72;;;6.60;80.39
72525;BME280;60547;48.502;8.996;2023-04-07T00:34:53;97887.13;;;6.63;79.52
72525;BME280;60547;48.502;8.996;2023-04-07T00:37:19;97894.16;;;6.71;78.89
72525;BME280;60547;48.502;8.996;2023-04-07T00:39:45;97880.41;;;6.64;79.01
72525;BME280;60547;48.502;8.996;2023-04-07T00:42:11;97884.44;;;6.56;80.75
72525;BME280;60547;48.502;8.996;2023-04-07T00:44:36;97877.78;;;6.50;80.66
72525;BME280;60547;48.502;8.996;2023-04-07T00:47:02;97885.69;;;6.48;81.29
72525;BME280;60547;48.502;8.996;2023-04-07T00:49:28;97879.34;;;6.51;80.66
72525;BME280;60547;48.502;8.996;2023-04-07T00:51:54;97873.09;;;6.43;81.03
72525;BME280;60547;48.502;8.996;2023-04-07T00:54:22;97862.41;;;6.45;80.96
72525;BME280;60547;48.502;8.996;2023-04-07T00:56:47;97856.94;;;6.42;81.12
72525;BME280;60547;48.502;8.996;2023-04-07T00:59:13;97858.09;;;6.44;81.38
72525;BME280;60547;48.502;8.996;2023-04-07T01:04:26;97848.25;;;6.40;81.18
72525;BME280;60547;48.502;8.996;2023-04-07T01:06:56;97843.16;;;6.38;81.64
72525;BME280;60547;48.502;8.996;2023-04-07T01:09:29;97852.56;;;6.44;81.35
72525;BME280;60547;48.502;8.996;2023-04-07T01:12:07;97852.97;;;6.43;81.44
72525;BME280;60547;48.502;8.996;2023-04-07T01:14:41;97838.38;;;6.42;81.45
72525;BME280;60547;48.502;8.996;2023-04-07T01:17:11;97833.63;;;6.43;82.51
72525;BME280;60547;48.502;8.996;2023-04-07T01:19:46;97836.00;;;6.41;81.98
72525;BME280;60547;48.502;8.996;2023-04-07T01:22:15;97838.34;;;6.46;81.48
72525;BME280;60547;48.502;8.996;2023-04-07T01:25:13;97824.06;;;6.51;81.60
72525;BME280;60547;48.502;8.996;2023-04-07T01:30:18;97829.75;;;6.37;82.87
72525;BME280;60547;48.502;8.996;2023-04-07T01:32:49;97828.25;;;6.29;83.11
72525;BME280;60547;48.502;8.996;2023-04-07T01:35:16;97830.22;;;6.28;83.39
72525;BME280;60547;48.502;8.996;2023-04-07T01:37:42;97826.69;;;6.28;83.65
72525;BME280;60547;48.502;8.996;2023-04-07T01:40:11;97820.78;;;6.26;83.64
72525;BME280;60547;48.502;8.996;2023-04-07T01:42:38;97832.56;;;6.30;83.72
72525;BME280;60547;48.502;8.996;2023-04-07T01:45:04;97824.28;;;6.30;83.72
72525;BME280;60547;48.502;8.996;2023-04-07T01:47:31;97814.84;;;6.27;83.35
72525;BME280;60547;48.502;8.996;2023-04-07T01:50:00;97811.63;;;6.32;82.32
72525;BME280;60547;48.502;8.996;2023-04-07T01:52:29;97809.31;;;6.27;82.27
72525;BME280;60547;48.502;8.996;2023-04-07T01:54:55;97809.66;;;6.33;82.20
72525;BME280;60547;48.502;8.996;2023-04-07T01:57:22;97807.34;;;6.28;82.14
72525;BME280;60547;48.502;8.996;2023-04-07T01:59:47;97811.25;;;6.30;81.94
72525;BME280;60547;48.502;8.996;2023-04-07T02:02:13;97814.81;;;6.31;82.04
72525;BME280;60547;48.502;8.996;2023-04-07T02:04:59;97812.41;;;6.33;82.38
72525;BME280;60547;48.502;8.996;2023-04-07T02:07:44;97810.06;;;6.31;82.66
72525;BME280;60547;48.502;8.996;2023-04-07T02:10:12;97804.94;;;6.30;82.51
72525;BME280;60547;48.502;8.996;2023-04-07T02:12:40;97803.75;;;6.31;81.91
72525;BME280;60547;48.502;8.996;2023-04-07T02:15:09;97799.88;;;6.25;82.30
72525;BME280;60547;48.502;8.996;2023-04-07T02:17:38;97799.88;;;6.25;81.99
72525;BME280;60547;48.502;8.996;2023-04-07T02:20:08;97799.03;;;6.28;82.46
72525;BME280;60547;48.502;8.996;2023-04-07T02:22:37;97791.19;;;6.23;81.61
72525;BME280;60547;48.502;8.996;2023-04-07T02:27:51;97793.09;;;6.29;81.58
72525;BME280;60547;48.502;8.996;2023-04-07T02:30:17;97790.38;;;6.26;81.22
72525;BME280;60547;48.502;8.996;2023-04-07T02:32:42;97783.28;;;6.25;81.47
72525;BME280;60547;48.502;8.996;2023-04-07T02:35:08;97776.59;;;6.22;81.27
72525;BME280;60547;48.502;8.996;2023-04-07T02:37:34;97791.13;;;6.30;81.53
72525;BME280;60547;48.502;8.996;2023-04-07T02:39:59;97785.22;;;6.28;80.83
72525;BME280;60547;48.502;8.996;2023-04-07T02:42:25;97786.00;;;6.28;80.87
72525;BME280;60547;48.502;8.996;2023-04-07T02:44:50;97788.00;;;6.28;81.34
72525;BME280;60547;48.502;8.996;2023-04-07T02:47:16;97787.63;;;6.26;81.30
72525;BME280;60547;48.502;8.996;2023-04-07T02:49:41;97778.53;;;6.25;80.72
72525;BME280;60547;48.502;8.996;2023-04-07T02:52:07;97784.81;;;6.29;79.32
72525;BME280;60547;48.502;8.996;2023-04-07T02:54:32;97784.78;;;6.33;80.58
72525;BME280;60547;48.502;8.996;2023-04-07T02:56:58;97782.75;;;6.37;81.52
72525;BME280;60547;48.502;8.996;2023-04-07T02:59:23;97771.03;;;6.26;82.94
72525;BME280;60547;48.502;8.996;2023-04-07T03:01:49;97775.75;;;6.29;82.99
72525;BME280;60547;48.502;8.996;2023-04-07T03:04:14;97776.13;;;6.31;83.75
72525;BME280;60547;48.502;8.996;2023-04-07T03:06:40;97764.25;;;6.34;83.16
72525;BME280;60547;48.502;8.996;2023-04-07T03:09:05;97771.28;;;6.38;83.13
72525;BME280;60547;48.502;8.996;2023-04-07T03:11:31;97767.78;;;6.34;83.53
72525;BME280;60547;48.502;8.996;2023-04-07T03:13:56;97756.41;;;6.29;83.43
72525;BME280;60547;48.502;8.996;2023-04-07T03:16:22;97756.84;;;6.24;84.21
72525;BME280;60547;48.502;8.996;2023-04-07T03:18:47;97758.50;;;6.18;83.91
72525;BME280;60547;48.502;8.996;2023-04-07T03:21:13;97753.38;;;6.16;84.74
72525;BME280;60547;48.502;8.996;2023-04-07T03:23:38;97749.84;;;6.15;84.36
72525;BME280;60547;48.502;8.996;2023-04-07T03:26:04;97742.66;;;6.22;83.73
72525;BME280;60547;48.502;8.996;2023-04-07T03:28:29;97749.84;;;6.15;83.67
72525;BME280;60547;48.502;8.996;2023-04-07T03:30:55;97747.53;;;6.10;83.92
72525;BME280;60547;48.502;8.996;2023-04-07T03:33:20;97747.97;;;6.05;84.15
72525;BME280;60547;48.502;8.996;2023-04-07T03:35:46;97755.03;;;6.10;84.15
72525;BME280;60547;48.502;8.996;2023-04-07T03:38:11;97742.00;;;6.10;84.14
72525;BME280;60547;48.502;8.996;2023-04-07T03:40:37;97747.91;;;6.12;83.88
72525;BME280;60547;48.502;8.996;2023-04-07T03:43:02;97742.00;;;6.10;84.14
72525;BME280;60547;48.502;8.996;2023-04-07T03:45:28;97752.22;;;6.13;84.64
72525;BME280;60547;48.502;8.996;2023-04-07T03:47:53;97751.88;;;6.08;84.13
72525;BME280;60547;48.502;8.996;2023-04-07T03:50:19;97742.00;;;6.10;84.00
72525;BME280;60547;48.502;8.996;2023-04-07T03:52:45;97733.84;;;5.96;84.33
72525;BME280;60547;48.502;8.996;2023-04-07T03:55:11;97734.66;;;5.97;84.54
72525;BME280;60547;48.502;8.996;2023-04-07T03:57:37;97733.03;;;5.99;84.62
72525;BME280;60547;48.502;8.996;2023-04-07T04:00:03;97735.38;;;6.01;85.05
72525;BME280;60547;48.502;8.996;2023-04-07T04:02:29;97734.59;;;6.00;85.05
72525;BME280;60547;48.502;8.996;2023-04-07T04:04:55;97723.19;;;5.98;85.15
72525;BME280;60547;48.502;8.996;2023-04-07T04:07:20;97722.00;;;5.99;85.30
72525;BME280;60547;48.502;8.996;2023-04-07T04:09:46;97725.50;;;6.03;84.83
72525;BME280;60547;48.502;8.996;2023-04-07T04:12:11;97722.88;;;5.89;85.21
72525;BME280;60547;48.502;8.996;2023-04-07T04:14:37;97714.97;;;5.91;85.38
72525;BME280;60547;48.502;8.996;2023-04-07T04:17:02;97700.78;;;5.89;85.48
72525;BME280;60547;48.502;8.996;2023-04-07T04:19:28;97707.44;;;5.95;85.11
72525;BME280;60547;48.502;8.996;2023-04-07T04:22:03;97713.72;;;5.99;84.92
72525;BME280;60547;48.502;8.996;2023-04-07T04:24:29;97710.94;;;5.99;84.93
72525;BME280;60547;48.502;8.996;2023-04-07T04:26:55;97720.44;;;5.98;85.19
72525;BME280;60547;48.502;8.996;2023-04-07T04:29:25;97714.59;;;5.89;85.19
72525;BME280;60547;48.502;8.996;2023-04-07T04:31:51;97711.44;;;5.87;85.27
72525;BME280;60547;48.502;8.996;2023-04-07T04:34:23;97723.22;;;5.95;85.67
72525;BME280;60547;48.502;8.996;2023-04-07T04:36:49;97713.41;;;5.90;85.41
72525;BME280;60547;48.502;8.996;2023-04-07T04:39:15;97726.34;;;5.97;85.59
72525;BME280;60547;48.502;8.996;2023-04-07T04:41:40;97724.03;;;5.92;86.42
72525;BME280;60547;48.502;8.996;2023-04-07T04:44:06;97720.50;;;5.91;86.22
72525;BME280;60547;48.502;8.996;2023-04-07T04:46:31;97718.94;;;5.87;85.92
72525;BME280;60547;48.502;8.996;2023-04-07T04:48:57;97717.38;;;5.86;86.22
72525;BME280;60547;48.502;8.996;2023-04-07T04:51:22;97723.69;;;5.86;86.45
72525;BME280;60547;48.502;8.996;2023-04-07T04:53:48;97726.41;;;5.93;85.78
72525;BME280;60547;48.502;8.996;2023-04-07T04:56:13;97723.25;;;5.91;85.75
72525;BME280;60547;48.502;8.996;2023-04-07T04:58:40;97717.38;;;5.86;86.15
72525;BME280;60547;48.502;8.996;2023-04-07T05:01:11;97726.44;;;5.86;86.36
72525;BME280;60547;48.502;8.996;2023-04-07T05:03:36;97723.31;;;5.84;86.49
72525;BME280;60547;48.502;8.996;2023-04-07T05:06:02;97719.78;;;5.80;86.49
72525;BME280;60547;48.502;8.996;2023-04-07T05:08:28;97726.09;;;5.80;86.07
72525;BME280;60547;48.502;8.996;2023-04-07T05:10:53;97720.97;;;5.79;86.45
72525;BME280;60547;48.502;8.996;2023-04-07T05:13:20;97713.97;;;5.71;85.96
72525;BME280;60547;48.502;8.996;2023-04-07T05:15:46;97721.03;;;5.75;86.72
72525;BME280;60547;48.502;8.996;2023-04-07T05:18:12;97726.94;;;5.74;86.11
72525;BME280;60547;48.502;8.996;2023-04-07T05:20:37;97730.09;;;5.76;86.67
72525;BME280;60547;48.502;8.996;2023-04-07T05:23:03;97726.13;;;5.77;86.22
72525;BME280;60547;48.502;8.996;2023-04-07T05:25:29;97728.13;;;5.73;86.05
72525;BME280;60547;48.502;8.996;2023-04-07T05:27:55;97727.69;;;5.78;86.36
72525;BME280;60547;48.502;8.996;2023-04-07T05:30:20;97731.22;;;5.82;86.03
72525;BME280;60547;48.502;8.996;2023-04-07T05:32:46;97730.47;;;5.78;86.43
72525;BME280;60547;48.502;8.996;2023-04-07T05:35:11;97735.13;;;5.84;86.62
72525;BME280;60547;48.502;8.996;2023-04-07T05:37:37;97730.00;;;5.83;86.17
72525;BME280;60547;48.502;8.996;2023-04-07T05:40:02;97738.66;;;5.85;85.79
72525;BME280;60547;48.502;8.996;2023-04-07T05:42:28;97743.38;;;5.88;85.83
72525;BME280;60547;48.502;8.996;2023-04-07T05:44:54;97738.19;;;5.97;85.59
72525;BME280;60547;48.502;8.996;2023-04-07T05:47:20;97737.81;;;5.95;85.70
72525;BME280;60547;48.502;8.996;2023-04-07T05:49:45;97735.44;;;5.97;85.59
72525;BME280;60547;48.502;8.996;2023-04-07T05:52:12;97744.13;;;5.96;85.36
72525;BME280;60547;48.502;8.996;2023-04-07T05:54:37;97737.06;;;5.91;85.40
72525;BME280;60547;48.502;8.996;2023-04-07T05:57:05;97735.88;;;5.92;85.38
72525;BME280;60547;48.502;8.996;2023-04-07T05:59:32;97740.16;;;5.97;85.68
72525;BME280;60547;48.502;8.996;2023-04-07T06:01:57;97737.44;;;5.93;85.35
72525;BME280;60547;48.502;8.996;2023-04-07T06:04:23;97729.13;;;5.97;85.27
72525;BME280;60547;48.502;8.996;2023-04-07T06:06:48;97733.84;;;5.96;85.47
72525;BME280;60547;48.502;8.996;2023-04-07T06:09:14;97735.72;;;6.06;84.72
72525;BME280;60547;48.502;8.996;2023-04-07T06:11:39;97732.41;;;6.22;85.24
72525;BME280;60547;48.502;8.996;2023-04-07T06:14:05;97730.53;;;6.12;85.79
72525;BME280;60547;48.502;8.996;2023-04-07T06:16:30;97728.94;;;6.14;85.20
72525;BME280;60547;48.502;8.996;2023-04-07T06:18:56;97725.09;;;6.05;85.17
72525;BME280;60547;48.502;8.996;2023-04-07T06:21:21;97716.69;;;6.15;84.69
72525;BME280;60547;48.502;8.996;2023-04-07T06:23:47;97723.31;;;6.22;84.34
72525;BME280;60547;48.502;8.996;2023-04-07T06:26:12;97717.75;;;6.25;85.45
72525;BME280;60547;48.502;8.996;2023-04-07T06:28:38;97715.41;;;6.24;85.36
72525;BME280;60547;48.502;8.996;2023-04-07T06:31:04;97718.53;;;6.26;85.56
72525;BME280;60547;48.502;8.996;2023-04-07T06:33:30;97719.16;;;6.40;85.77
72525;BME280;60547;48.502;8.996;2023-04-07T06:35:55;97726.91;;;6.53;84.95
72525;BME280;60547;48.502;8.996;2023-04-07T06:38:22;97729.91;;;6.65;83.98
72525;BME280;60547;48.502;8.996;2023-04-07T06:40:47;97734.09;;;6.77;83.59
72525;BME280;60547;48.502;8.996;2023-04-07T06:43:13;97732.09;;;7.08;82.25
72525;BME280;60547;48.502;8.996;2023-04-07T06:45:38;97724.81;;;7.18;82.16
72525;BME280;60547;48.502;8.996;2023-04-07T06:48:04;97726.97;;;7.33;81.04
72525;BME280;60547;48.502;8.996;2023-04-07T06:50:29;97726.44;;;7.42;79.57
72525;BME280;60547;48.502;8.996;2023-04-07T06:52:55;97730.34;;;7.44;78.52
72525;BME280;60547;48.502;8.996;2023-04-07T06:55:20;97729.19;;;7.42;77.78
72525;BME280;60547;48.502;8.996;2023-04-07T06:57:46;97732.84;;;7.35;77.67
72525;BME280;60547;48.502;8.996;2023-04-07T07:00:11;97733.56;;;7.16;79.25
72525;BME280;60547;48.502;8.996;2023-04-07T07:02:37;97725.41;;;7.05;79.72
72525;BME280;60547;48.502;8.996;2023-04-07T07:05:03;97723.78;;;7.08;80.34
72525;BME280;60547;48.502;8.996;2023-04-07T07:07:30;97732.13;;;7.31;79.59
72525;BME280;60547;48.502;8.996;2023-04-07T07:09:55;97719.22;;;7.48;79.00
72525;BME280;60547;48.502;8.996;2023-04-07T07:12:21;97733.00;;;7.75;78.30
72525;BME280;60547;48.502;8.996;2023-04-07T07:14:46;97729.81;;;7.76;77.53
72525;BME280;60547;48.502;8.996;2023-04-07T07:17:12;97726.19;;;8.23;73.99
72525;BME280;60547;48.502;8.996;2023-04-07T07:19:37;97728.78;;;8.33;73.27
72525;BME280;60547;48.502;8.996;2023-04-07T07:22:03;97716.06;;;8.36;72.41
72525;BME280;60547;48.502;8.996;2023-04-07T07:24:30;97736.53;;;8.42;73.83
72525;BME280;60547;48.502;8.996;2023-04-07T07:26:58;97727.72;;;8.47;73.31
72525;BME280;60547;48.502;8.996;2023-04-07T07:29:24;97727.88;;;8.40;73.18
72525;BME280;60547;48.502;8.996;2023-04-07T07:31:49;97721.91;;;8.61;71.71
72525;BME280;60547;48.502;8.996;2023-04-07T07:34:15;97729.34;;;8.84;70.43
72525;BME280;60547;48.502;8.996;2023-04-07T07:36:40;97724.03;;;9.10;70.12
72525;BME280;60547;48.502;8.996;2023-04-07T07:39:06;97714.69;;;9.36;67.44
72525;BME280;60547;48.502;8.996;2023-04-07T07:41:32;97726.91;;;9.55;68.08
72525;BME280;60547;48.502;8.996;2023-04-07T07:43:57;97718.41;;;9.78;66.79
72525;BME280;60547;48.502;8.996;2023-04-07T07:46:23;97717.59;;;9.94;66.46
72525;BME280;60547;48.502;8.996;2023-04-07T07:48:50;97722.41;;;9.61;66.31
72525;BME280;60547;48.502;8.996;2023-04-07T07:51:16;97719.72;;;9.74;65.36
72525;BME280;60547;48.502;8.996;2023-04-07T07:53:43;97728.31;;;9.63;65.96
72525;BME280;60547;48.502;8.996;2023-04-07T07:56:09;97726.03;;;9.90;66.07
72525;BME280;60547;48.502;8.996;2023-04-07T07:58:35;97720.09;;;10.04;64.51
72525;BME280;60547;48.502;8.996;2023-04-07T08:01:00;97723.94;;;9.94;64.53
72525;BME280;60547;48.502;8.996;2023-04-07T08:03:26;97724.72;;;9.95;66.06
72525;BME280;60547;48.502;8.996;2023-04-07T08:05:51;97730.91;;;9.86;64.49
72525;BME280;60547;48.502;8.996;2023-04-07T08:08:17;97732.78;;;10.06;64.27
72525;BME280;60547;48.502;8.996;2023-04-07T08:10:42;97724.97;;;10.00;64.14
72525;BME280;60547;48.502;8.996;2023-04-07T08:13:08;97723.75;;;10.01;64.46
72525;BME280;60547;48.502;8.996;2023-04-07T08:15:33;97725.13;;;10.26;64.18
72525;BME280;60547;48.502;8.996;2023-04-07T08:17:59;97738.63;;;10.40;64.61
72525;BME280;60547;48.502;8.996;2023-04-07T08:20:27;97733.34;;;10.58;64.32
72525;BME280;60547;48.502;8.996;2023-04-07T08:22:52;97726.38;;;10.38;62.88
72525;BME280;60547;48.502;8.996;2023-04-07T08:25:18;97731.84;;;10.41;63.18
72525;BME280;60547;48.502;8.996;2023-04-07T08:27:43;97721.91;;;10.27;65.28
72525;BME280;60547;48.502;8.996;2023-04-07T08:30:09;97731.38;;;10.30;64.75
72525;BME280;60547;48.502;8.996;2023-04-07T08:32:37;97724.59;;;10.31;64.21
72525;BME280;60547;48.502;8.996;2023-04-07T08:35:03;97730.78;;;10.22;64.07
72525;BME280;60547;48.502;8.996;2023-04-07T08:37:30;97730.50;;;10.17;64.93
72525;BME280;60547;48.502;8.996;2023-04-07T08:39:55;97730.63;;;9.97;64.29
72525;BME280;60547;48.502;8.996;2023-04-07T08:42:25;97719.06;;;9.98;64.77
72525;BME280;60547;48.502;8.996;2023-04-07T08:44:53;97735.50;;;9.93;64.07
72525;BME280;60547;48.502;8.996;2023-04-07T08:47:21;97716.56;;;9.88;64.23
72525;BME280;60547;48.502;8.996;2023-04-07T08:49:51;97725.41;;;9.99;63.88
72525;BME280;60547;48.502;8.996;2023-04-07T08:52:21;97718.81;;;10.38;64.69
72525;BME280;60547;48.502;8.996;2023-04-07T08:54:48;97728.53;;;10.46;63.22
72525;BME280;60547;48.502;8.996;2023-04-07T08:57:14;97731.34;;;10.59;63.39
72525;BME280;60547;48.502;8.996;2023-04-07T08:59:41;97737.28;;;10.74;63.88
72525;BME280;60547;48.502;8.996;2023-04-07T09:02:09;97741.09;;;10.80;59.77
72525;BME280;60547;48.502;8.996;2023-04-07T09:04:35;97729.41;;;10.85;59.42
72525;BME280;60547;48.502;8.996;2023-04-07T09:07:01;97729.69;;;10.61;59.54
72525;BME280;60547;48.502;8.996;2023-04-07T09:09:28;97725.81;;;10.72;62.00
72525;BME280;60547;48.502;8.996;2023-04-07T09:11:53;97728.63;;;10.84;62.56
72525;BME280;60547;48.502;8.996;2023-04-07T09:14:20;97725.78;;;11.13;62.11
72525;BME280;60547;48.502;8.996;2023-04-07T09:16:46;97724.88;;;11.16;63.03
72525;BME280;60547;48.502;8.996;2023-04-07T09:19:11;97725.56;;;11.20;61.66
72525;BME280;60547;48.502;8.996;2023-04-07T09:21:51;97717.75;;;11.15;61.57
72525;BME280;60547;48.502;8.996;2023-04-07T09:24:35;97720.53;;;11.41;59.81
72525;BME280;60547;48.502;8.996;2023-04-07T09:29:36;97710.03;;;11.70;57.73
72525;BME280;60547;48.502;8.996;2023-04-07T09:32:02;97722.13;;;12.02;58.38
72525;BME280;60547;48.502;8.996;2023-04-07T09:34:30;97718.03;;;12.28;58.45
72525;BME280;60547;48.502;8.996;2023-04-07T09:36:56;97713.16;;;12.19;57.66
72525;BME280;60547;48.502;8.996;2023-04-07T09:39:22;97718.03;;;12.50;58.88
72525;BME280;60547;48.502;8.996;2023-04-07T09:41:47;97707.78;;;12.69;58.33
72525;BME280;60547;48.502;8.996;2023-04-07T09:44:13;97717.25;;;12.71;56.67
72525;BME280;60547;48.502;8.996;2023-04-07T09:49:17;97709.22;;;12.51;55.28
72525;BME280;60547;48.502;8.996;2023-04-07T09:52:01;97709.75;;;12.03;54.76
72525;BME280;60547;48.502;8.996;2023-04-07T09:54:35;97711.47;;;11.62;56.55
72525;BME280;60547;48.502;8.996;2023-04-07T09:57:03;97712.97;;;11.41;58.26
72525;BME280;60547;48.502;8.996;2023-04-07T09:59:30;97706.06;;;11.33;57.32
72525;BME280;60547;48.502;8.996;2023-04-07T10:01:56;97710.47;;;11.81;57.28
72525;BME280;60547;48.502;8.996;2023-04-07T10:04:25;97706.06;;;12.06;56.30
72525;BME280;60547;48.502;8.996;2023-04-07T10:06:52;97700.06;;;11.94;54.93
72525;BME280;60547;48.502;8.996;2023-04-07T10:09:21;97702.03;;;12.07;54.56
72525;BME280;60547;48.502;8.996;2023-04-07T10:11:48;97700.53;;;12.49;54.59
72525;BME280;60547;48.502;8.996;2023-04-07T10:14:15;97695.25;;;12.73;52.24
72525;BME280;60547;48.502;8.996;2023-04-07T10:16:42;97692.81;;;13.15;51.33
72525;BME280;60547;48.502;8.996;2023-04-07T10:19:08;97701.38;;;13.52;50.50
72525;BME280;60547;48.502;8.996;2023-04-07T10:21:37;97678.53;;;13.44;49.23
72525;BME280;60547;48.502;8.996;2023-04-07T10:24:26;97689.50;;;14.06;51.07
72525;BME280;60547;48.502;8.996;2023-04-07T10:26:59;97696.66;;;14.07;49.60
72525;BME280;60547;48.502;8.996;2023-04-07T10:29:30;97697.13;;;13.38;50.65
72525;BME280;60547;48.502;8.996;2023-04-07T10:31:59;97703.59;;;13.66;49.55
72525;BME280;60547;48.502;8.996;2023-04-07T10:37:15;97688.97;;;13.62;48.59
72525;BME280;60547;48.502;8.996;2023-04-07T10:45:08;97703.13;;;13.68;52.07
72525;BME280;60547;48.502;8.996;2023-04-07T10:47:34;97708.19;;;13.42;54.24
72525;BME280;60547;48.502;8.996;2023-04-07T10:50:22;97714.59;;;12.68;54.51
72525;BME280;60547;48.502;8.996;2023-04-07T10:53:03;97722.47;;;12.60;53.95
72525;BME280;60547;48.502;8.996;2023-04-07T10:55:36;97724.50;;;12.25;54.84
72525;BME280;60547;48.502;8.996;2023-04-07T11:03:34;97733.00;;;12.21;56.34
72525;BME280;60547;48.502;8.996;2023-04-07T11:06:03;97727.88;;;12.20;56.27
72525;BME280;60547;48.502;8.996;2023-04-07T11:08:41;97731.41;;;12.77;57.06
72525;BME280;60547;48.502;8.996;2023-04-07T11:11:08;97722.50;;;12.91;57.71
72525;BME280;60547;48.502;8.996;2023-04-07T11:13:47;97718.81;;;12.72;55.52
72525;BME280;60547;48.502;8.996;2023-04-07T11:16:13;97735.63;;;12.03;57.01
72525;BME280;60547;48.502;8.996;2023-04-07T11:18:42;97745.25;;;11.89;57.05
72525;BME280;60547;48.502;8.996;2023-04-07T11:21:08;97730.78;;;11.44;57.22
72525;BME280;60547;48.502;8.996;2023-04-07T11:23:42;97719.84;;;10.98;56.31
72525;BME280;60547;48.502;8.996;2023-04-07T11:26:11;97723.97;;;10.94;60.01
72525;BME280;60547;48.502;8.996;2023-04-07T11:28:52;97712.84;;;10.52;61.26
72525;BME280;60547;48.502;8.996;2023-04-07T11:31:24;97722.28;;;10.84;60.80
72525;BME280;60547;48.502;8.996;2023-04-07T11:34:03;97728.94;;;10.32;67.09
72525;BME280;60547;48.502;8.996;2023-04-07T11:36:31;97729.50;;;9.94;71.17
72525;BME280;60547;48.502;8.996;2023-04-07T11:38:58;97730.03;;;9.89;70.01
72525;BME280;60547;48.502;8.996;2023-04-07T11:41:30;97736.81;;;9.56;69.44
72525;BME280;60547;48.502;8.996;2023-04-07T11:44:06;97735.16;;;9.42;71.18
72525;BME280;60547;48.502;8.996;2023-04-07T11:46:33;97718.25;;;9.36;71.25
72525;BME280;60547;48.502;8.996;2023-04-07T11:49:11;97735.44;;;9.48;70.64
72525;BME280;60547;48.502;8.996;2023-04-07T11:51:37;97729.94;;;9.28;69.46
72525;BME280;60547;48.502;8.996;2023-04-07T11:54:04;97734.63;;;9.31;71.35
72525;BME280;60547;48.502;8.996;2023-04-07T11:56:40;97730.19;;;9.17;70.38
72525;BME280;60547;48.502;8.996;2023-04-07T11:59:06;97742.53;;;9.49;72.32
72525;BME280;60547;48.502;8.996;2023-04-07T12:01:40;97742.63;;;9.61;69.31
72525;BME280;60547;48.502;8.996;2023-04-07T12:04:11;97740.19;;;9.47;69.60
72525;BME280;60547;48.502;8.996;2023-04-07T12:06:39;97766.69;;;9.52;69.05
72525;BME280;60547;48.502;8.996;2023-04-07T12:09:32;97753.84;;;9.74;71.33
72525;BME280;60547;48.502;8.996;2023-04-07T12:12:03;97753.47;;;9.88;73.14
72525;BME280;60547;48.502;8.996;2023-04-07T12:14:33;97750.34;;;9.54;71.91
72525;BME280;60547;48.502;8.996;2023-04-07T12:16:58;97759.03;;;9.39;73.67
72525;BME280;60547;48.502;8.996;2023-04-07T12:19:26;97759.75;;;9.76;74.52
72525;BME280;60547;48.502;8.996;2023-04-07T12:21:53;97744.28;;;9.59;74.79
72525;BME280;60547;48.502;8.996;2023-04-07T12:24:19;97756.75;;;9.34;75.35
72525;BME280;60547;48.502;8.996;2023-04-07T12:26:46;97755.38;;;9.43;76.47
72525;BME280;60547;48.502;8.996;2023-04-07T12:29:12;97770.72;;;9.31;76.79
72525;BME280;60547;48.502;8.996;2023-04-07T12:31:38;97758.50;;;9.28;78.36
72525;BME280;60547;48.502;8.996;2023-04-07T12:34:04;97763.22;;;9.80;76.30
72525;BME280;60547;48.502;8.996;2023-04-07T12:36:30;97756.75;;;9.99;77.22
72525;BME280;60547;48.502;8.996;2023-04-07T12:38:56;97749.13;;;9.87;75.58
72525;BME280;60547;48.502;8.996;2023-04-07T12:41:22;97729.47;;;10.11;75.27
72525;BME280;60547;48.502;8.996;2023-04-07T12:43:48;97748.94;;;10.56;74.97
72525;BME280;60547;48.502;8.996;2023-04-07T12:46:14;97742.75;;;10.77;72.52
72525;BME280;60547;48.502;8.996;2023-04-07T12:48:40;97738.84;;;10.75;71.67
72525;BME280;60547;48.502;8.996;2023-04-07T12:51:05;97737.66;;;10.88;72.31
72525;BME280;60547;48.502;8.996;2023-04-07T12:53:31;97749.78;;;10.82;69.47
72525;BME280;60547;48.502;8.996;2023-04-07T12:55:57;97751.84;;;10.65;66.81
72525;BME280;60547;48.502;8.996;2023-04-07T12:58:23;97753.41;;;10.66;69.99
72525;BME280;60547;48.502;8.996;2023-04-07T13:00:48;97760.53;;;10.67;68.55
72525;BME280;60547;48.502;8.996;2023-04-07T13:03:14;97766.50;;;10.53;68.00
72525;BME280;60547;48.502;8.996;2023-04-07T13:05:40;97755.66;;;10.42;68.40
72525;BME280;60547;48.502;8.996;2023-04-07T13:08:06;97750.59;;;10.53;67.28
72525;BME280;60547;48.502;8.996;2023-04-07T13:10:32;97766.06;;;10.54;66.92
72525;BME280;60547;48.502;8.996;2023-04-07T13:12:58;97769.53;;;10.58;66.20
72525;BME280;60547;48.502;8.996;2023-04-07T13:15:24;97751.94;;;10.61;66.00
72525;BME280;60547;48.502;8.996;2023-04-07T13:17:49;97762.41;;;10.57;64.34
72525;BME280;60547;48.502;8.996;2023-04-07T13:20:15;97763.63;;;10.56;65.40
72525;BME280;60547;48.502;8.996;2023-04-07T13:22:41;97761.91;;;10.46;64.78
72525;BME280;60547;48.502;8.996;2023-04-07T13:25:07;97752.94;;;10.55;67.25
72525;BME280;60547;48.502;8.996;2023-04-07T13:27:33;97758.50;;;10.55;65.08
72525;BME280;60547;48.502;8.996;2023-04-07T13:29:58;97739.94;;;10.35;66.60
72525;BME280;60547;48.502;8.996;2023-04-07T13:32:25;97744.25;;;10.53;65.04
72525;BME280;60547;48.502;8.996;2023-04-07T13:34:51;97752.44;;;10.73;63.94